createdAt,value
2018-02-05T00:01:28.084Z,24.23
2018-02-05T00:03:55.542Z,23.50
2018-02-05T00:06:22.998Z,24.30
2018-02-05T00:08:50.463Z,23.90
2018-02-05T00:11:17.916Z,22.33
2018-02-05T00:13:45.390Z,24.27
2018-02-05T00:16:12.839Z,22.93
2018-02-05T00:18:40.299Z,22.20
2018-02-05T00:21:07.747Z,22.57
2018-02-05T00:23:35.220Z,23.77
2018-02-05T00:26:02.671Z,24.00
2018-02-05T00:28:30.123Z,22.60
2018-02-05T00:30:57.576Z,24.30
2018-02-05T00:33:25.030Z,25.17
2018-02-05T00:35:52.486Z,24.80
2018-02-05T00:38:19.937Z,25.20
2018-02-05T00:40:47.388Z,23.47
2018-02-05T00:43:14.863Z,23.90
2018-02-05T00:45:42.311Z,25.50
2018-02-05T00:48:09.754Z,25.13
2018-02-05T00:50:37.223Z,23.20
2018-02-05T00:53:04.679Z,25.77
2018-02-05T00:55:32.135Z,22.70
2018-02-05T00:57:59.592Z,26.70
2018-02-05T01:00:27.046Z,25.40
2018-02-05T01:02:54.507Z,26.57
2018-02-05T01:05:21.962Z,27.20
2018-02-05T01:07:49.419Z,26.97
2018-02-05T01:10:16.879Z,26.20
2018-02-05T01:12:44.372Z,28.03
2018-02-05T01:15:11.824Z,28.40
2018-02-05T01:17:39.270Z,25.90
2018-02-05T01:20:07.504Z,23.00
2018-02-05T01:22:34.960Z,28.30
2018-02-05T01:25:02.423Z,23.90
2018-02-05T01:27:29.870Z,25.67
2018-02-05T01:29:57.335Z,25.60
2018-02-05T01:32:24.792Z,26.90
2018-02-05T01:34:52.248Z,26.87
2018-02-05T01:37:19.696Z,25.67
2018-02-05T01:39:47.160Z,28.47
2018-02-05T01:42:14.615Z,26.17
2018-02-05T01:44:42.080Z,27.20
2018-02-05T01:47:09.531Z,26.50
2018-02-05T01:49:36.992Z,26.97
2018-02-05T01:52:04.451Z,26.77
2018-02-05T01:54:31.907Z,26.27
2018-02-05T01:56:59.371Z,28.10
2018-02-05T01:59:26.822Z,26.40
2018-02-05T02:01:54.287Z,27.63
2018-02-05T02:04:22.516Z,29.83
2018-02-05T02:06:49.970Z,27.07
2018-02-05T02:09:17.426Z,28.00
2018-02-05T02:11:44.890Z,29.70
2018-02-05T02:14:12.361Z,29.60
2018-02-05T02:16:39.831Z,30.10
2018-02-05T02:19:07.302Z,26.23
2018-02-05T02:21:34.758Z,28.70
2018-02-05T02:24:02.984Z,28.60
2018-02-05T02:26:30.447Z,28.73
2018-02-05T02:28:57.903Z,30.37
2018-02-05T02:31:25.371Z,29.60
2018-02-05T02:33:52.828Z,27.17
2018-02-05T02:36:20.802Z,27.80
2018-02-05T02:38:48.259Z,28.20
2018-02-05T02:41:15.722Z,26.53
2018-02-05T02:43:43.189Z,27.90
2018-02-05T02:46:10.647Z,29.03
2018-02-05T02:48:38.104Z,26.50
2018-02-05T02:51:05.560Z,28.87
2018-02-05T02:53:33.015Z,30.03
2018-02-05T02:56:00.481Z,30.80
2018-02-05T02:58:27.936Z,29.53
2018-02-05T03:00:56.167Z,29.33
2018-02-05T03:03:23.637Z,31.03
2018-02-05T03:05:51.086Z,28.30
2018-02-05T03:08:18.564Z,31.40
2018-02-05T03:10:46.014Z,29.60
2018-02-05T03:13:13.471Z,32.57
2018-02-05T03:15:40.927Z,39.73
2018-02-05T03:18:08.395Z,30.87
2018-02-05T03:20:35.850Z,29.77
2018-02-05T03:23:03.295Z,30.47
2018-02-05T03:25:30.752Z,31.03
2018-02-05T03:27:58.215Z,28.63
2018-02-05T03:30:25.664Z,27.97
2018-02-05T03:32:53.122Z,29.97
2018-02-05T03:35:20.578Z,29.90
2018-02-05T03:37:48.044Z,30.57
2018-02-05T03:40:15.498Z,29.70
2018-02-05T03:42:42.959Z,31.20
2018-02-05T03:45:10.412Z,31.43
2018-02-05T03:47:37.876Z,31.70
2018-02-05T03:50:06.097Z,30.23
2018-02-05T03:52:33.550Z,27.80
2018-02-05T03:55:01.011Z,30.23
2018-02-05T03:57:28.476Z,30.53
2018-02-05T03:59:55.935Z,29.00
2018-02-05T04:02:23.400Z,32.53
2018-02-05T04:04:50.854Z,29.47
2018-02-05T04:07:18.324Z,32.40
2018-02-05T04:09:45.779Z,31.20
2018-02-05T04:12:13.244Z,28.43
2018-02-05T04:14:40.716Z,31.57
2018-02-05T04:17:09.025Z,32.47
2018-02-05T04:19:36.470Z,31.20
2018-02-05T04:22:03.921Z,30.97
2018-02-05T04:24:31.375Z,31.00
2018-02-05T04:26:58.831Z,29.73
2018-02-05T04:29:26.294Z,28.80
2018-02-05T04:31:53.746Z,30.60
2018-02-05T04:34:21.203Z,31.10
2018-02-05T04:36:48.678Z,29.77
2018-02-05T04:39:16.140Z,29.27
2018-02-05T04:41:43.598Z,30.23
2018-02-05T04:44:11.058Z,29.33
2018-02-05T04:46:38.514Z,31.77
2018-02-05T04:49:05.992Z,31.10
2018-02-05T04:51:33.455Z,30.40
2018-02-05T04:54:00.919Z,28.00
2018-02-05T04:56:28.376Z,27.73
2018-02-05T04:58:55.843Z,30.40
2018-02-05T05:01:23.296Z,28.83
2018-02-05T05:03:50.754Z,30.47
2018-02-05T05:06:18.212Z,30.10
2018-02-05T05:08:45.672Z,29.90
2018-02-05T05:11:13.925Z,29.70
2018-02-05T05:13:41.409Z,30.43
2018-02-05T05:16:10.173Z,29.57
2018-02-05T05:18:37.642Z,32.80
2018-02-05T05:21:05.103Z,31.77
2018-02-05T05:23:33.330Z,27.57
2018-02-05T05:26:00.787Z,32.10
2018-02-05T05:28:28.301Z,30.07
2018-02-05T05:30:56.619Z,29.20
2018-02-05T05:33:24.066Z,31.60
2018-02-05T05:35:52.296Z,29.07
2018-02-05T05:38:19.760Z,30.60
2018-02-05T05:40:47.994Z,30.87
2018-02-05T05:43:15.447Z,30.00
2018-02-05T05:45:42.919Z,31.13
2018-02-05T05:48:10.374Z,31.03
2018-02-05T05:50:37.844Z,31.93
2018-02-05T05:53:05.291Z,31.70
2018-02-05T05:55:32.755Z,29.70
2018-02-05T05:58:00.211Z,32.33
2018-02-05T06:00:27.675Z,28.90
2018-02-05T06:02:55.896Z,30.03
2018-02-05T06:05:23.355Z,30.23
2018-02-05T06:07:50.811Z,30.93
2018-02-05T06:10:18.274Z,31.30
2018-02-05T06:12:45.733Z,29.50
2018-02-05T06:15:13.200Z,27.90
2018-02-05T06:17:40.647Z,27.50
2018-02-05T06:20:08.113Z,28.80
2018-02-05T06:22:35.622Z,27.97
2018-02-05T06:25:03.100Z,28.47
2018-02-05T06:27:30.560Z,29.13
2018-02-05T06:29:58.027Z,31.10
2018-02-05T06:32:25.532Z,29.80
2018-02-05T06:34:52.939Z,26.77
2018-02-05T06:37:20.406Z,29.67
2018-02-05T06:39:47.863Z,31.93
2018-02-05T06:42:15.326Z,33.20
2018-02-05T06:44:42.790Z,31.33
2018-02-05T06:47:10.256Z,33.30
2018-02-05T06:49:37.707Z,33.60
2018-02-05T06:52:16.910Z,34.90
2018-02-05T06:54:56.332Z,33.90
2018-02-05T06:57:23.790Z,33.57
2018-02-05T06:59:51.247Z,32.83
2018-02-05T07:02:19.476Z,33.17
2018-02-05T07:04:47.699Z,34.80
2018-02-05T07:07:15.168Z,32.00
2018-02-05T07:09:42.627Z,33.30
2018-02-05T07:12:10.099Z,31.60
2018-02-05T07:14:37.559Z,32.17
2018-02-05T07:17:05.022Z,31.73
2018-02-05T07:19:32.479Z,32.33
2018-02-05T07:21:59.939Z,30.80
2018-02-05T07:24:27.396Z,31.97
2018-02-05T07:26:54.851Z,30.87
2018-02-05T07:29:22.306Z,30.40
2018-02-05T07:31:49.767Z,30.60
2018-02-05T07:34:17.223Z,31.90
2018-02-05T07:36:45.450Z,33.27
2018-02-05T07:39:12.920Z,33.20
2018-02-05T07:41:40.362Z,32.10
2018-02-05T07:44:07.822Z,32.87
2018-02-05T07:46:35.283Z,33.00
2018-02-05T07:49:02.738Z,33.67
2018-02-05T07:51:30.195Z,38.70
2018-02-05T07:53:57.651Z,41.30
2018-02-05T07:56:25.120Z,38.57
2018-02-05T07:58:52.567Z,31.90
2018-02-05T08:01:20.043Z,29.40
2018-02-05T08:03:47.488Z,31.33
2018-02-05T08:06:14.935Z,30.23
2018-02-05T08:08:42.387Z,27.53
2018-02-05T08:11:09.843Z,25.40
2018-02-05T08:13:37.319Z,26.50
2018-02-05T08:16:04.763Z,30.50
2018-02-05T08:18:32.226Z,45.40
2018-02-05T08:20:59.681Z,26.00
2018-02-05T08:23:27.139Z,28.87
2018-02-05T08:25:54.587Z,24.90
2018-02-05T08:28:22.043Z,24.10
2018-02-05T08:30:49.495Z,23.53
2018-02-05T08:33:16.952Z,20.20
2018-02-05T08:35:44.407Z,23.63
2018-02-05T08:38:11.871Z,21.73
2018-02-05T08:40:39.327Z,21.20
2018-02-05T08:43:06.783Z,20.57
2018-02-05T08:45:34.235Z,18.57
2018-02-05T08:48:01.694Z,20.80
2018-02-05T08:50:29.142Z,19.80
2018-02-05T08:52:56.611Z,20.27
2018-02-05T08:55:24.060Z,19.50
2018-02-05T08:57:51.523Z,19.87
2018-02-05T09:00:18.972Z,19.33
2018-02-05T09:02:46.435Z,21.00
2018-02-05T09:05:13.889Z,19.00
2018-02-05T09:07:41.347Z,36.30
2018-02-05T09:10:08.803Z,36.83
2018-02-05T09:12:36.276Z,19.77
2018-02-05T09:15:03.733Z,17.93
2018-02-05T09:17:31.186Z,18.70
2018-02-05T09:19:58.657Z,18.70
2018-02-05T09:22:26.095Z,18.03
2018-02-05T09:24:53.557Z,19.97
2018-02-05T09:27:21.011Z,19.50
2018-02-05T09:29:48.472Z,17.77
2018-02-05T09:32:15.928Z,17.50
2018-02-05T09:34:43.393Z,16.07
2018-02-05T09:37:10.847Z,16.77
2018-02-05T09:39:38.304Z,17.90
2018-02-05T09:42:05.746Z,18.43
2018-02-05T09:44:33.206Z,18.83
2018-02-05T09:47:00.662Z,22.37
2018-02-05T09:49:28.139Z,17.40
2018-02-05T09:51:56.362Z,18.83
2018-02-05T09:54:23.819Z,16.70
2018-02-05T09:56:52.032Z,17.23
2018-02-05T09:59:19.488Z,15.60
2018-02-05T10:01:46.948Z,15.40
2018-02-05T10:04:14.396Z,20.60
2018-02-05T10:06:41.868Z,15.30
2018-02-05T10:09:09.319Z,16.57
2018-02-05T10:11:36.771Z,15.77
2018-02-05T10:14:04.223Z,15.60
2018-02-05T10:16:31.860Z,16.63
2018-02-05T10:18:59.310Z,16.40
2018-02-05T10:21:26.758Z,14.70
2018-02-05T10:23:54.236Z,15.50
2018-02-05T10:26:21.692Z,17.40
2018-02-05T10:28:49.172Z,16.63
2018-02-05T10:31:16.627Z,17.17
2018-02-05T10:33:44.070Z,15.93
2018-02-05T10:36:11.531Z,16.00
2018-02-05T10:38:38.983Z,17.13
2018-02-05T10:41:06.439Z,15.10
2018-02-05T10:43:33.896Z,15.40
2018-02-05T10:46:01.352Z,16.63
2018-02-05T10:48:28.799Z,14.73
2018-02-05T10:50:56.260Z,12.50
2018-02-05T10:53:23.706Z,12.23
2018-02-05T10:55:51.164Z,14.30
2018-02-05T10:58:18.618Z,13.43
2018-02-05T11:00:46.075Z,12.70
2018-02-05T11:03:13.524Z,12.87
2018-02-05T11:05:40.983Z,15.33
2018-02-05T11:08:08.422Z,13.33
2018-02-05T11:10:35.979Z,12.47
2018-02-05T11:13:03.419Z,21.97
2018-02-05T11:15:30.863Z,14.47
2018-02-05T11:17:58.311Z,18.17
2018-02-05T11:20:26.540Z,23.37
2018-02-05T11:22:53.987Z,15.43
2018-02-05T11:25:22.210Z,15.77
2018-02-05T11:27:50.431Z,14.50
2018-02-05T11:30:17.883Z,13.50
2018-02-05T11:32:45.339Z,13.47
2018-02-05T11:35:12.804Z,13.10
2018-02-05T11:37:40.250Z,11.27
2018-02-05T11:40:07.706Z,14.43
2018-02-05T11:42:35.168Z,16.27
2018-02-05T11:45:02.604Z,14.43
2018-02-05T11:47:30.060Z,15.37
2018-02-05T11:49:57.503Z,13.83
2018-02-05T11:52:25.724Z,13.90
2018-02-05T11:54:53.168Z,13.43
2018-02-05T11:57:20.615Z,17.23
2018-02-05T11:59:48.076Z,11.80
2018-02-05T12:02:15.530Z,10.90
2018-02-05T12:04:42.990Z,11.40
2018-02-05T12:07:10.443Z,11.00
2018-02-05T12:09:37.900Z,12.47
2018-02-05T12:12:05.355Z,10.70
2018-02-05T12:14:32.807Z,11.80
2018-02-05T12:17:00.262Z,11.87
2018-02-05T12:19:27.726Z,11.20
2018-02-05T12:21:55.179Z,12.20
2018-02-05T12:24:22.631Z,10.70
2018-02-05T12:26:50.090Z,10.90
2018-02-05T12:29:17.537Z,10.67
2018-02-05T12:31:44.992Z,10.70
2018-02-05T12:34:12.431Z,10.40
2018-02-05T12:36:39.882Z,11.43
2018-02-05T12:39:08.103Z,11.00
2018-02-05T12:41:35.555Z,9.90
2018-02-05T12:44:03.014Z,11.63
2018-02-05T12:46:30.471Z,11.73
2018-02-05T12:48:57.926Z,11.47
2018-02-05T12:51:25.391Z,10.70
2018-02-05T12:53:52.847Z,10.00
2018-02-05T12:56:20.302Z,10.00
2018-02-05T12:58:47.774Z,9.37
2018-02-05T13:04:25.571Z,9.10
2018-02-05T13:06:53.035Z,10.20
2018-02-05T13:09:20.480Z,9.10
2018-02-05T13:11:47.932Z,9.20
2018-02-05T13:14:15.387Z,8.60
2018-02-05T13:16:42.847Z,9.60
2018-02-05T13:19:10.312Z,9.20
2018-02-05T13:21:37.768Z,8.53
2018-02-05T13:24:05.223Z,7.63
2018-02-05T13:26:32.663Z,8.90
2018-02-05T13:29:00.115Z,8.33
2018-02-05T13:31:27.567Z,8.63
2018-02-05T13:33:55.028Z,8.07
2018-02-05T13:36:22.475Z,9.70
2018-02-05T13:38:49.938Z,9.40
2018-02-05T13:41:17.370Z,8.97
2018-02-05T13:43:44.822Z,7.93
2018-02-05T13:46:13.035Z,7.60
2018-02-05T13:48:40.499Z,8.67
2018-02-05T13:51:07.951Z,9.07
2018-02-05T13:53:35.420Z,8.27
2018-02-05T13:56:02.871Z,7.13
2018-02-05T13:58:30.327Z,10.30
2018-02-05T14:00:57.781Z,10.70
2018-02-05T14:03:25.243Z,10.07
2018-02-05T14:05:52.695Z,9.83
2018-02-05T14:08:20.155Z,11.17
2018-02-05T14:10:47.610Z,7.90
2018-02-05T14:13:15.075Z,12.00
2018-02-05T14:15:42.523Z,8.80
2018-02-05T14:18:09.971Z,8.77
2018-02-05T14:20:37.423Z,11.20
2018-02-05T14:23:04.892Z,9.50
2018-02-05T14:25:32.338Z,9.70
2018-02-05T14:27:59.774Z,8.20
2018-02-05T14:30:27.238Z,10.00
2018-02-05T14:32:54.682Z,9.53
2018-02-05T14:35:22.144Z,10.40
2018-02-05T14:37:49.571Z,9.23
2018-02-05T14:40:17.803Z,10.43
2018-02-05T14:42:45.247Z,8.87
2018-02-05T14:45:12.711Z,9.00
2018-02-05T14:47:40.155Z,8.90
2018-02-05T14:50:07.611Z,9.70
2018-02-05T14:52:35.057Z,9.80
2018-02-05T14:55:02.516Z,9.40
2018-02-05T14:57:29.976Z,10.70
2018-02-05T14:59:57.432Z,10.90
2018-02-05T15:02:24.883Z,17.00
2018-02-05T15:04:52.341Z,10.17
2018-02-05T15:07:19.794Z,15.10
2018-02-05T15:09:47.247Z,10.80
2018-02-05T15:12:14.706Z,9.70
2018-02-05T15:14:42.159Z,9.70
2018-02-05T15:17:09.612Z,10.57
2018-02-05T15:19:37.838Z,10.57
2018-02-05T15:22:05.287Z,9.73
2018-02-05T15:24:32.796Z,10.47
2018-02-05T15:27:00.200Z,10.63
2018-02-05T15:29:27.654Z,11.50
2018-02-05T15:31:55.113Z,12.00
2018-02-05T15:34:22.567Z,11.93
2018-02-05T15:36:50.026Z,11.40
2018-02-05T15:39:17.474Z,11.70
2018-02-05T15:41:44.929Z,10.93
2018-02-05T15:44:12.386Z,11.67
2018-02-05T15:46:39.846Z,10.50
2018-02-05T15:49:07.303Z,10.63
2018-02-05T15:51:34.768Z,9.67
2018-02-05T15:54:02.215Z,10.97
2018-02-05T15:56:29.674Z,11.40
2018-02-05T15:58:57.123Z,12.53
2018-02-05T16:01:24.583Z,12.47
2018-02-05T16:03:52.054Z,13.37
2018-02-05T16:06:19.501Z,12.60
2018-02-05T16:08:46.948Z,12.00
2018-02-05T16:11:14.419Z,11.07
2018-02-05T16:13:41.895Z,11.63
2018-02-05T16:16:09.319Z,15.17
2018-02-05T16:18:36.771Z,17.77
2018-02-05T16:21:04.226Z,17.70
2018-02-05T16:23:31.683Z,12.80
2018-02-05T16:25:59.156Z,15.27
2018-02-05T16:28:26.604Z,11.70
2018-02-05T16:30:54.072Z,22.50
2018-02-05T16:33:22.291Z,14.13
2018-02-05T16:35:49.760Z,14.77
2018-02-05T16:38:17.215Z,13.57
2018-02-05T16:40:44.677Z,11.97
2018-02-05T16:43:12.138Z,10.87
2018-02-05T16:45:39.612Z,11.60
2018-02-05T16:48:07.067Z,11.40
2018-02-05T16:50:34.523Z,10.73
2018-02-05T16:53:01.984Z,10.67
2018-02-05T16:55:29.482Z,10.77
2018-02-05T16:57:56.950Z,13.27
2018-02-05T17:00:24.410Z,16.40
2018-02-05T17:02:51.867Z,11.93
2018-02-05T17:05:19.322Z,11.80
2018-02-05T17:07:46.778Z,16.60
2018-02-05T17:10:14.239Z,14.53
2018-02-05T17:12:41.690Z,16.50
2018-02-05T17:15:09.159Z,20.23
2018-02-05T17:17:36.627Z,17.80
2018-02-05T17:20:04.083Z,20.33
2018-02-05T17:22:31.556Z,13.43
2018-02-05T17:24:59.007Z,16.33
2018-02-05T17:27:26.476Z,19.30
2018-02-05T17:29:53.957Z,19.80
2018-02-05T17:32:21.423Z,22.30
2018-02-05T17:34:48.880Z,19.60
2018-02-05T17:37:16.574Z,16.73
2018-02-05T17:39:44.028Z,18.00
2018-02-05T17:42:11.501Z,12.07
2018-02-05T17:44:38.955Z,14.13
2018-02-05T17:47:06.419Z,13.57
2018-02-05T17:49:33.871Z,14.83
2018-02-05T17:52:01.335Z,24.07
2018-02-05T17:54:28.786Z,15.90
2018-02-05T17:56:56.246Z,15.40
2018-02-05T17:59:23.699Z,15.77
2018-02-05T18:01:51.151Z,12.50
2018-02-05T18:04:18.670Z,13.40
2018-02-05T18:06:46.059Z,14.90
2018-02-05T18:09:13.518Z,14.80
2018-02-05T18:11:40.970Z,15.47
2018-02-05T18:14:08.427Z,13.80
2018-02-05T18:16:35.964Z,13.10
2018-02-05T18:19:03.411Z,13.07
2018-02-05T18:21:30.870Z,13.87
2018-02-05T18:23:58.330Z,14.57
2018-02-05T18:26:25.783Z,13.90
2018-02-05T18:28:53.242Z,14.03
2018-02-05T18:31:20.691Z,14.13
2018-02-05T18:33:48.163Z,16.10
2018-02-05T18:36:15.610Z,14.50
2018-02-05T18:38:43.067Z,14.13
2018-02-05T18:41:10.519Z,16.00
2018-02-05T18:43:37.982Z,15.40
2018-02-05T18:46:05.442Z,18.10
2018-02-05T18:48:32.910Z,16.97
2018-02-05T18:51:00.374Z,15.87
2018-02-05T18:53:27.823Z,17.07
2018-02-05T18:55:55.269Z,22.77
2018-02-05T18:58:22.738Z,20.13
2018-02-05T19:00:51.970Z,23.53
2018-02-05T19:03:20.198Z,27.03
2018-02-05T19:05:47.644Z,26.73
2018-02-05T19:08:15.117Z,27.97
2018-02-05T19:10:43.131Z,27.30
2018-02-05T19:13:11.342Z,21.67
2018-02-05T19:15:38.799Z,18.60
2018-02-05T19:18:06.249Z,21.10
2018-02-05T19:20:33.708Z,20.43
2018-02-05T19:23:01.158Z,18.43
2018-02-05T19:25:29.420Z,18.10
2018-02-05T19:27:56.911Z,16.77
2018-02-05T19:30:24.386Z,20.47
2018-02-05T19:32:51.834Z,18.10
2018-02-05T19:35:19.290Z,17.13
2018-02-05T19:37:46.739Z,16.77
2018-02-05T19:40:14.208Z,18.77
2018-02-05T19:42:41.660Z,19.97
2018-02-05T19:45:09.126Z,19.50
2018-02-05T19:47:36.616Z,19.93
2018-02-05T19:50:04.058Z,19.43
2018-02-05T19:52:32.278Z,23.73
2018-02-05T19:54:59.783Z,19.70
2018-02-05T19:57:27.238Z,23.07
2018-02-05T19:59:54.694Z,22.80
2018-02-05T20:02:22.151Z,24.53
2018-02-05T20:04:49.596Z,19.20
2018-02-05T20:07:17.050Z,21.80
2018-02-05T20:09:44.528Z,21.90
2018-02-05T20:12:12.743Z,25.83
2018-02-05T20:14:40.203Z,25.17
2018-02-05T20:17:07.671Z,24.07
2018-02-05T20:19:35.135Z,22.47
2018-02-05T20:22:02.634Z,20.10
2018-02-05T20:24:30.869Z,18.43
2018-02-05T20:26:59.680Z,20.07
2018-02-05T20:29:27.131Z,21.17
2018-02-05T20:31:54.595Z,22.13
2018-02-05T20:34:22.048Z,19.20
2018-02-05T20:36:49.562Z,19.27
2018-02-05T20:39:17.046Z,23.13
2018-02-05T20:41:44.496Z,22.07
2018-02-05T20:44:11.989Z,20.10
2018-02-05T20:46:40.240Z,16.90
2018-02-05T20:49:07.699Z,17.53
2018-02-05T20:51:36.101Z,19.43
2018-02-05T20:54:04.310Z,19.47
2018-02-05T20:56:32.531Z,19.70
2018-02-05T20:59:00.028Z,18.67
2018-02-05T21:01:27.534Z,18.60
2018-02-05T21:03:55.054Z,16.67
2018-02-05T21:06:23.518Z,19.60
2018-02-05T21:08:50.959Z,25.00
2018-02-05T21:11:18.423Z,24.73
2018-02-05T21:13:45.883Z,25.20
2018-02-05T21:16:14.342Z,18.50
2018-02-05T21:18:41.802Z,18.87
2018-02-05T21:21:10.249Z,18.40
2018-02-05T21:23:37.824Z,19.23
2018-02-05T21:26:06.078Z,17.77
2018-02-05T21:28:33.534Z,17.60
2018-02-05T21:31:00.994Z,18.67
2018-02-05T21:33:28.448Z,20.00
2018-02-05T21:35:56.668Z,17.67
2018-02-05T21:38:24.937Z,18.80
2018-02-05T21:40:53.150Z,18.00
2018-02-05T21:43:20.606Z,18.10
2018-02-05T21:45:48.107Z,18.77
2018-02-05T21:48:15.578Z,19.57
2018-02-05T21:50:43.791Z,20.10
2018-02-05T21:53:11.250Z,18.47
2018-02-05T21:55:38.771Z,19.70
2018-02-05T21:58:07.028Z,20.20
2018-02-05T22:00:34.517Z,19.37
2018-02-05T22:03:01.972Z,18.97
2018-02-05T22:05:29.424Z,20.03
2018-02-05T22:07:56.883Z,20.30
2018-02-05T22:10:24.330Z,19.50
2018-02-05T22:12:52.559Z,20.60
2018-02-05T22:15:22.644Z,20.60
2018-02-05T22:17:50.179Z,20.30
2018-02-05T22:20:18.835Z,20.00
2018-02-05T22:22:46.299Z,20.43
2018-02-05T22:25:13.739Z,21.23
2018-02-05T22:27:41.195Z,17.93
2018-02-05T22:30:08.653Z,19.43
2018-02-05T22:32:36.150Z,18.30
2018-02-05T22:35:04.370Z,17.67
2018-02-05T22:37:31.835Z,18.87
2018-02-05T22:39:59.298Z,18.63
2018-02-05T22:42:26.758Z,19.73
2018-02-05T22:44:54.213Z,20.80
2018-02-05T22:47:21.678Z,20.93
2018-02-05T22:49:49.131Z,19.90
2018-02-05T22:52:16.581Z,18.90
2018-02-05T22:54:44.035Z,19.63
2018-02-05T22:57:11.478Z,20.07
2018-02-05T22:59:38.943Z,19.37
2018-02-05T23:02:06.404Z,18.70
2018-02-05T23:04:33.863Z,19.43
2018-02-05T23:07:01.317Z,20.30
2018-02-05T23:09:28.770Z,19.60
2018-02-05T23:11:56.220Z,18.90
2018-02-05T23:14:23.682Z,19.77
2018-02-05T23:16:51.139Z,19.87
2018-02-05T23:19:18.597Z,19.50
2018-02-05T23:21:46.039Z,18.67
2018-02-05T23:24:13.512Z,18.73
2018-02-05T23:26:40.962Z,20.30
2018-02-05T23:29:08.423Z,18.40
2018-02-05T23:31:35.875Z,19.33
2018-02-05T23:34:03.344Z,20.50
2018-02-05T23:36:30.786Z,20.50
2018-02-05T23:38:59.031Z,18.87
2018-02-05T23:41:26.482Z,20.80
2018-02-05T23:43:53.943Z,20.60
2018-02-05T23:46:21.395Z,18.97
2018-02-05T23:48:49.623Z,20.97
2018-02-05T23:51:17.071Z,19.63
2018-02-05T23:53:44.526Z,19.83
2018-02-05T23:56:11.970Z,19.87
2018-02-05T23:58:39.432Z,18.30
